Airfield :
LOGIN :

Register | Disclaimer

   EN    FR    IT 

 










Legend :    VFR   Marginal VFR   IFR   Intensive IFR   Very Intensive IFR
Visi :
Ceiling :
>= 8 km
>= 3000ft
5 to 8 km
1000 to 3000 ft
1500m to 5 km
500 to 1000 ft
800 to 1500m
200 to 500 ft
< 800m
< 200 ft
Symbols :   Thunderstorms  Fog  Heavy snow  Heavy precipitations  Wind > 20 kt
SIGMETs :     Misc.  Thunderstorms  Icing  Turbulence  Mountain Waves  Volcanic Ashes






- Airport Elevation : 135 ft
- IATA code : EDI


EGPH - Edinburgh

CURRENT METAR :
  • 210750Z 24008KT 9999 OVC021 12/12 Q1016

EXPIRED METARs :
  • 210720Z 23006KT 9999 OVC020 11/11 Q1016
  • 210650Z 23004KT 9999 OVC018 10/10 Q1016
  • 210620Z 24005KT 9999 BKN017 09/09 Q1016
  • 210550Z 25004KT 210V300 8000 FEW018 08/08 Q1016
  • 210520Z 25005KT CAVOK 07/07 Q1016

TAF TAF EGPH
Valid from the 21 at 06:00 until the 22 at 06:00 UTC


210458Z 2106/2206 VRB02KT 9999 FEW020
TEMPO 2106/2110 6000 BKN007
BECMG 2107/2110 24012KT
TEMPO 2109/2118 24018G28KT
TEMPO 2203/2206 BKN014
ATIS : +44 131 339 2823



MET'MAP, your aeronautical weather chart ! - Copyright ORBIFLY December 2007 - Disclaimer

ORBIFLY MET'MAP TEAM :

Programming & Development : Alexandra Zaïnal
Concept & original design : Baudouin d'Aumeries
Assistance for programming : Marc-Olivier Méhu
Technical & hardware support : Manuel Goepfert

Contact : metmap@orbifly.com




SOURCES & CREDITS :

   NOAA